Time;durP1;ratioP1;P1;durP2;ratioP2;P2;SDS_P1;SDS_P2;PMS_P1;PMS_P2;Temp;Humidity;BMP_temperature;BMP_pressure;BME280_temperature;BME280_humidity;BME280_pressure;Samples;Min_cycle;Max_cycle;Signal;HPM_P1;HPM_P2
2022/02/01 00:10:06;;;;;;;129.63;109.28;;;18.70;45.80;;;;;;4786154;55;21042;-36
2022/02/01 00:37:49;;;;;;;127.05;106.82;;;18.70;45.60;;;;;;4747808;55;21080;-36
2022/02/01 00:42:50;;;;;;;127.93;107.93;;;18.70;45.60;;;;;;4746293;55;21596;-35
2022/02/01 00:47:51;;;;;;;124.62;107.60;;;18.70;45.60;;;;;;4745735;55;21146;-36
2022/02/01 00:52:52;;;;;;;126.60;108.97;;;18.70;45.70;;;;;;4772130;55;21017;-34
2022/02/01 00:57:53;;;;;;;123.05;103.90;;;18.70;45.70;;;;;;4756747;55;21607;-36
2022/02/01 01:02:54;;;;;;;121.85;105.65;;;18.70;45.60;;;;;;4759103;55;21058;-36
2022/02/01 01:07:55;;;;;;;122.13;104.70;;;18.70;45.60;;;;;;4736828;59;21037;-33
2022/02/01 01:13:08;;;;;;;123.50;105.00;;;18.70;45.60;;;;;;4737774;55;21568;-36
2022/02/01 01:56:53;;;;;;;112.22;96.80;;;18.70;45.50;;;;;;4737698;55;21527;-35
2022/02/01 02:01:54;;;;;;;113.90;97.50;;;18.70;45.50;;;;;;4758198;55;21492;-32
2022/02/01 02:06:55;;;;;;;113.60;98.18;;;18.70;45.40;;;;;;4737738;59;21001;-34
2022/02/01 02:12:36;;;;;;;113.47;96.30;;;18.70;45.40;;;;;;4784535;55;21085;-36
2022/02/01 02:17:37;;;;;;;110.63;94.45;;;18.60;45.30;;;;;;4761857;55;21583;-36
2022/02/01 02:22:37;;;;;;;110.80;94.07;;;18.70;45.40;;;;;;4745525;55;21161;-35
2022/02/01 02:27:39;;;;;;;110.55;94.72;;;18.70;45.40;;;;;;4738674;59;21579;-37
2022/02/01 02:32:40;;;;;;;109.80;92.93;;;18.60;45.30;;;;;;4803620;55;21621;-37
2022/02/01 02:37:40;;;;;;;106.95;91.03;;;18.70;45.40;;;;;;4755615;55;21026;-38
2022/02/01 02:48:00;;;;;;;103.07;89.07;;;18.60;45.30;;;;;;4774633;55;21025;-36
2022/02/01 02:53:01;;;;;;;104.12;88.53;;;18.70;45.40;;;;;;4769135;55;21484;-30
2022/02/01 02:58:02;;;;;;;99.15;85.22;;;18.70;45.40;;;;;;4752996;55;21025;-35
2022/02/01 03:03:03;;;;;;;101.57;85.65;;;18.70;45.40;;;;;;4753361;55;21628;-36
2022/02/01 03:08:04;;;;;;;104.35;87.20;;;18.70;45.40;;;;;;4753810;55;21081;-35
2022/02/01 03:13:16;;;;;;;98.47;85.12;;;18.70;45.30;;;;;;4787198;55;21078;-36
2022/02/01 03:23:36;;;;;;;96.65;84.80;;;18.70;45.40;;;;;;4759687;55;21600;-29
2022/02/01 03:28:37;;;;;;;94.55;81.85;;;18.60;45.30;;;;;;4739872;55;21073;-33
2022/02/01 03:33:38;;;;;;;101.15;85.70;;;18.70;45.30;;;;;;4782638;55;21105;-34
2022/02/01 03:38:41;;;;;;;97.37;83.15;;;18.70;45.30;;;;;;4738119;59;21540;-33
2022/02/01 03:43:42;;;;;;;91.20;78.78;;;18.70;45.20;;;;;;4751771;55;21030;-32
2022/02/01 03:48:43;;;;;;;93.40;80.30;;;18.70;45.30;;;;;;4782596;55;20998;-36
2022/02/01 03:53:44;;;;;;;92.68;79.30;;;18.60;45.20;;;;;;4738449;59;21567;-35
2022/02/01 03:58:45;;;;;;;92.62;79.12;;;18.70;45.20;;;;;;4757359;55;21006;-36
2022/02/01 04:03:46;;;;;;;90.47;77.60;;;18.70;45.20;;;;;;4811045;55;21070;-35
2022/02/01 04:08:47;;;;;;;88.57;74.72;;;18.70;45.20;;;;;;4738376;55;21065;-35
2022/02/01 04:13:48;;;;;;;90.43;77.05;;;18.60;45.20;;;;;;4751568;55;21053;-36
2022/02/01 04:18:48;;;;;;;91.32;76.97;;;18.60;45.10;;;;;;4777447;55;21030;-37
2022/02/01 04:23:49;;;;;;;89.95;77.18;;;18.70;45.30;;;;;;4737904;59;21006;-31
2022/02/01 04:28:50;;;;;;;86.15;75.62;;;18.70;45.30;;;;;;4770233;55;21515;-34
2022/02/01 04:33:51;;;;;;;85.82;74.50;;;18.70;45.20;;;;;;4794399;55;21433;-36
2022/02/01 04:38:58;;;;;;;81.20;71.60;;;18.70;45.30;;;;;;4742767;55;20986;-34
2022/02/01 04:43:59;;;;;;;87.90;75.43;;;18.60;45.30;;;;;;4779081;55;21098;-30
2022/02/01 04:49:03;;;;;;;86.87;74.12;;;18.60;45.30;;;;;;4780675;55;21014;-34
2022/02/01 04:54:04;;;;;;;82.15;71.15;;;18.60;45.30;;;;;;4799324;55;22118;-36
2022/02/01 04:59:05;;;;;;;80.50;69.97;;;18.70;45.40;;;;;;4787676;55;21527;-34
2022/02/01 05:04:07;;;;;;;82.43;71.25;;;18.60;45.30;;;;;;4737617;59;21033;-36
2022/02/01 05:09:10;;;;;;;84.05;70.20;;;18.60;45.40;;;;;;4753488;55;21536;-35
2022/02/01 05:14:17;;;;;;;80.32;68.78;;;18.60;45.40;;;;;;4747920;55;21524;-35
2022/02/01 05:19:32;;;;;;;80.82;67.40;;;18.70;45.50;;;;;;4767616;55;21548;-37
2022/02/01 05:24:36;;;;;;;78.45;68.78;;;18.60;45.50;;;;;;4743600;55;21519;-36
2022/02/01 05:29:38;;;;;;;79.97;66.68;;;18.60;45.60;;;;;;4737568;55;21604;-35
2022/02/01 05:34:40;;;;;;;76.95;66.37;;;18.60;45.70;;;;;;4746430;55;21088;-35
2022/02/01 05:39:40;;;;;;;76.37;64.18;;;18.60;45.70;;;;;;4753693;55;21066;-35
2022/02/01 05:44:41;;;;;;;76.22;65.93;;;18.60;45.80;;;;;;4746917;55;21046;-37
2022/02/01 05:49:43;;;;;;;72.53;62.92;;;18.60;45.80;;;;;;4747281;55;21125;-33
2022/02/01 05:54:43;;;;;;;74.82;63.87;;;18.60;45.90;;;;;;4784289;55;21076;-36
2022/02/01 05:59:44;;;;;;;72.45;62.33;;;18.60;45.90;;;;;;4739513;55;21013;-38
2022/02/01 06:04:45;;;;;;;73.40;63.78;;;18.60;46.00;;;;;;4738545;55;21069;-46
2022/02/01 06:09:46;;;;;;;70.82;61.60;;;18.60;45.90;;;;;;4761959;55;21018;-37
2022/02/01 06:14:47;;;;;;;71.37;61.30;;;18.60;45.90;;;;;;4788031;55;21050;-36
2022/02/01 06:19:48;;;;;;;73.32;61.28;;;18.60;45.90;;;;;;4741471;55;21054;-37
2022/02/01 06:24:49;;;;;;;70.35;60.75;;;18.60;46.00;;;;;;4737747;59;21531;-32
2022/02/01 06:29:51;;;;;;;68.75;60.12;;;18.60;45.90;;;;;;4761599;55;21516;-36
2022/02/01 06:34:52;;;;;;;68.28;58.53;;;18.60;45.90;;;;;;4748515;55;21069;-36
2022/02/01 06:39:53;;;;;;;68.65;59.22;;;18.60;46.00;;;;;;4769774;55;21516;-35
2022/02/01 06:44:54;;;;;;;66.82;57.28;;;18.60;46.00;;;;;;4742096;55;21018;-37
2022/02/01 06:49:54;;;;;;;70.62;58.87;;;18.60;45.90;;;;;;4767404;55;21022;-37
2022/02/01 06:54:55;;;;;;;67.00;57.28;;;18.60;46.00;;;;;;4753904;55;21046;-35
2022/02/01 06:59:56;;;;;;;66.85;59.35;;;18.60;46.00;;;;;;4767470;55;21010;-34
2022/02/01 07:04:57;;;;;;;67.47;58.30;;;18.60;45.90;;;;;;4741660;55;21125;-35
2022/02/01 07:09:58;;;;;;;65.05;57.08;;;18.60;46.00;;;;;;4791657;55;21018;-35
2022/02/01 07:14:58;;;;;;;68.37;59.10;;;18.60;45.90;;;;;;4784011;55;21069;-36
2022/02/01 07:19:59;;;;;;;64.25;57.00;;;18.60;45.90;;;;;;4752365;55;21484;-36
2022/02/01 07:25:11;;;;;;;66.30;57.35;;;18.60;45.90;;;;;;4737891;59;21017;-34
2022/02/01 07:30:13;;;;;;;62.45;55.60;;;18.60;45.90;;;;;;4767142;55;21512;-37
2022/02/01 07:35:14;;;;;;;66.07;55.80;;;18.60;45.90;;;;;;4753433;55;21018;-37
2022/02/01 07:40:15;;;;;;;64.87;56.15;;;18.60;45.90;;;;;;4751844;55;21504;-33
2022/02/01 07:45:19;;;;;;;70.47;58.70;;;18.60;45.90;;;;;;4756736;55;21034;-31
2022/02/01 07:50:20;;;;;;;64.30;55.55;;;18.60;45.80;;;;;;4753997;55;21580;-34
2022/02/01 07:55:24;;;;;;;64.30;55.50;;;18.60;45.90;;;;;;4748098;55;21069;-36
2022/02/01 08:00:25;;;;;;;65.87;56.42;;;18.60;45.80;;;;;;4749175;55;21053;-35
2022/02/01 08:05:30;;;;;;;62.60;55.17;;;18.60;45.80;;;;;;4745190;55;21026;-38
2022/02/01 08:10:42;;;;;;;65.35;56.70;;;18.60;45.80;;;;;;4737096;59;21042;-37
2022/02/01 08:16:36;;;;;;;67.78;58.15;;;18.60;45.80;;;;;;4759724;55;21532;-37
2022/02/01 08:21:45;;;;;;;65.60;56.30;;;18.60;45.80;;;;;;4780046;55;21505;-36
2022/02/01 08:26:47;;;;;;;65.10;56.20;;;18.60;45.80;;;;;;4750484;55;21026;-36
2022/02/01 08:31:49;;;;;;;66.60;56.05;;;18.60;45.80;;;;;;4773126;55;21149;-34
2022/02/01 08:36:50;;;;;;;70.65;59.58;;;18.60;45.90;;;;;;4738047;59;21046;-35
2022/02/01 08:41:51;;;;;;;70.65;59.35;;;18.60;45.80;;;;;;4742664;55;21026;-35
2022/02/01 08:46:52;;;;;;;71.53;60.35;;;18.60;45.80;;;;;;4740576;55;21075;-36
2022/02/01 08:51:59;;;;;;;70.80;60.20;;;18.60;45.80;;;;;;4738155;59;21005;-36
2022/02/01 09:02:24;;;;;;;68.68;59.90;;;18.60;45.80;;;;;;4744159;55;21026;-35
2022/02/01 09:07:25;;;;;;;73.28;63.38;;;18.60;45.80;;;;;;4754112;55;21137;-35
2022/02/01 09:12:27;;;;;;;74.28;62.97;;;18.60;45.80;;;;;;4763992;55;21050;-36
2022/02/01 09:17:27;;;;;;;72.72;63.03;;;18.60;45.80;;;;;;4751435;55;21030;-36
2022/02/01 09:22:28;;;;;;;72.25;62.62;;;18.60;45.80;;;;;;4780301;55;22465;-34
2022/02/01 09:27:29;;;;;;;75.53;65.37;;;18.60;45.80;;;;;;4753875;55;21061;-36
2022/02/01 09:32:30;;;;;;;75.45;65.82;;;18.60;45.90;;;;;;4743949;55;21005;-36
2022/02/01 09:37:31;;;;;;;77.40;67.20;;;18.60;45.80;;;;;;4758883;55;21097;-36
2022/02/01 09:42:35;;;;;;;76.47;65.93;;;18.60;45.80;;;;;;4778045;55;21468;-36
2022/02/01 09:47:46;;;;;;;76.70;66.50;;;18.60;45.90;;;;;;4758736;55;21114;-36
2022/02/01 09:52:47;;;;;;;82.62;71.87;;;18.60;45.80;;;;;;4753570;55;21266;-36
2022/02/01 09:57:52;;;;;;;82.88;71.25;;;18.70;45.80;;;;;;4737151;59;21014;-35
2022/02/01 10:02:56;;;;;;;83.50;71.30;;;18.60;46.00;;;;;;4750284;55;21030;-37
2022/02/01 10:07:58;;;;;;;86.22;73.37;;;18.70;46.30;;;;;;4749689;55;21571;-37
2022/02/01 10:13:14;;;;;;;85.05;71.25;;;18.70;46.50;;;;;;4765157;55;21543;-37
2022/02/01 10:18:28;;;;;;;91.53;74.62;;;18.80;46.70;;;;;;4757303;55;21524;-36
2022/02/01 10:23:30;;;;;;;94.28;69.87;;;18.90;46.70;;;;;;4767204;55;22117;-37
2022/02/01 10:29:07;;;;;;;93.07;73.65;;;19.00;46.60;;;;;;4753773;55;21975;-34
2022/02/01 10:39:36;;;;;;;93.75;77.53;;;19.10;46.80;;;;;;4737477;55;21037;-34
2022/02/01 10:44:48;;;;;;;92.37;77.12;;;19.10;46.90;;;;;;4746726;55;21993;-37
2022/02/01 10:49:49;;;;;;;92.53;78.40;;;19.10;46.90;;;;;;4740113;55;21038;-44
2022/02/01 10:54:51;;;;;;;95.10;81.00;;;19.10;47.00;;;;;;4756914;55;21476;-35
2022/02/01 10:59:52;;;;;;;101.53;82.70;;;19.20;47.10;;;;;;4762115;55;21057;-36
2022/02/01 11:04:54;;;;;;;107.10;84.65;;;19.20;47.80;;;;;;4739033;59;21567;-36
2022/02/01 11:09:55;;;;;;;102.40;84.35;;;19.10;47.00;;;;;;4787478;55;21049;-36
2022/02/01 11:14:55;;;;;;;109.93;90.18;;;19.10;46.60;;;;;;4815016;55;21583;-37
2022/02/01 11:19:58;;;;;;;108.43;88.35;;;19.10;46.90;;;;;;4788197;55;21010;-33
2022/02/01 11:25:22;;;;;;;104.50;84.93;;;19.10;46.90;;;;;;4804442;55;21082;-32
2022/02/01 11:30:24;;;;;;;106.93;88.55;;;19.10;46.80;;;;;;4743099;55;21533;-38
2022/02/01 11:35:26;;;;;;;109.12;91.65;;;19.10;46.80;;;;;;4783650;55;21002;-38
2022/02/01 11:40:46;;;;;;;115.85;96.12;;;19.10;46.80;;;;;;4737375;59;21073;-35
2022/02/01 11:45:58;;;;;;;110.75;92.65;;;19.10;46.70;;;;;;4767361;55;21558;-29
2022/02/01 11:51:12;;;;;;;102.45;88.03;;;19.10;46.70;;;;;;4787931;55;21484;-36
2022/02/01 11:56:17;;;;;;;113.28;95.40;;;19.10;46.70;;;;;;4784576;55;21094;-31
2022/02/01 12:01:30;;;;;;;116.80;99.03;;;19.10;46.60;;;;;;4749268;55;21541;-33
2022/02/01 12:07:07;;;;;;;113.57;96.70;;;19.10;46.60;;;;;;4752548;55;21567;-35
2022/02/01 12:12:09;;;;;;;119.83;98.30;;;19.10;46.60;;;;;;4775579;55;21045;-36
2022/02/01 12:17:10;;;;;;;116.28;97.72;;;19.10;46.60;;;;;;4796767;55;21053;-34
2022/02/01 12:22:36;;;;;;;114.60;95.05;;;19.10;46.60;;;;;;4752222;55;21548;-36
2022/02/01 12:27:39;;;;;;;118.37;101.87;;;19.10;46.50;;;;;;4737362;59;21524;-35
2022/02/01 12:32:54;;;;;;;118.22;96.45;;;19.10;46.60;;;;;;4761628;55;21018;-33
2022/02/01 12:38:04;;;;;;;119.75;101.45;;;19.10;46.50;;;;;;4737663;59;21579;-36
2022/02/01 12:43:12;;;;;;;116.30;99.15;;;19.10;46.70;;;;;;4744686;55;21531;-37
2022/02/01 12:48:13;;;;;;;121.57;102.72;;;19.10;47.20;;;;;;4755403;55;21050;-34
2022/02/01 12:53:13;;;;;;;122.82;103.32;;;19.10;47.30;;;;;;4766965;55;21517;-29
2022/02/01 12:58:16;;;;;;;131.90;110.65;;;19.20;47.40;;;;;;4737941;59;21568;-30
2022/02/01 13:03:17;;;;;;;133.57;108.53;;;19.20;47.30;;;;;;4757517;55;21037;-37
2022/02/01 13:20:30;;;;;;;132.77;109.18;;;19.20;47.20;;;;;;4737764;55;21025;-35
2022/02/01 13:25:46;;;;;;;129.82;109.45;;;19.10;47.00;;;;;;4738242;55;21021;-34
2022/02/01 13:30:47;;;;;;;126.53;106.75;;;19.10;47.00;;;;;;4736952;59;21133;-35
2022/02/01 13:35:54;;;;;;;137.15;113.47;;;19.10;47.00;;;;;;4819093;55;21267;-33
2022/02/01 13:40:55;;;;;;;124.83;103.33;;;19.20;47.00;;;;;;4761261;55;21049;-37
2022/02/01 13:45:56;;;;;;;131.73;108.07;;;19.20;47.20;;;;;;4777445;55;21559;-44
2022/02/01 13:51:05;;;;;;;138.27;108.55;;;19.30;47.40;;;;;;4789504;55;21439;-34
2022/02/01 13:56:09;;;;;;;131.55;109.10;;;19.30;47.30;;;;;;4757544;55;21053;-38
2022/02/01 14:01:17;;;;;;;132.85;106.47;;;19.30;47.40;;;;;;4756288;55;21542;-36
2022/02/01 14:06:49;;;;;;;129.27;107.12;;;19.30;47.50;;;;;;4767923;55;21500;-43
2022/02/01 14:12:10;;;;;;;127.70;107.43;;;19.30;47.60;;;;;;4742809;55;21516;-37
2022/02/01 14:23:24;;;;;;;123.20;104.85;;;19.30;47.90;;;;;;4803183;55;21042;-36
2022/02/01 14:28:50;;;;;;;123.95;102.50;;;19.40;48.60;;;;;;4745993;55;21544;-34
2022/02/01 14:34:14;;;;;;;174.47;105.67;;;19.40;48.00;;;;;;4797240;55;22325;-36
2022/02/01 14:47:48;;;;;;;138.95;105.12;;;19.30;48.80;;;;;;4740164;55;21137;-35
2022/02/01 14:52:49;;;;;;;128.35;100.65;;;19.30;48.20;;;;;;4780773;55;21026;-34
2022/02/01 15:13:51;;;;;;;133.10;109.00;;;19.10;48.00;;;;;;4742551;55;21030;-38
2022/02/01 15:18:52;;;;;;;138.05;112.43;;;19.10;48.00;;;;;;4738525;59;21464;-36
2022/02/01 15:23:56;;;;;;;132.45;110.65;;;19.00;47.90;;;;;;4784744;55;21030;-35
2022/02/01 15:28:57;;;;;;;143.57;112.07;;;19.10;47.90;;;;;;4737290;59;21041;-37
2022/02/01 15:33:58;;;;;;;129.35;107.15;;;19.10;47.90;;;;;;4773759;55;21057;-31
2022/02/01 16:01:49;;;;;;;136.93;111.70;;;19.00;47.70;;;;;;4748389;55;21002;-37
2022/02/01 16:06:58;;;;;;;136.88;113.70;;;19.00;47.60;;;;;;4748962;55;21509;-37
2022/02/01 16:12:01;;;;;;;143.80;117.03;;;19.00;47.50;;;;;;4810002;55;21546;-34
2022/02/01 16:17:03;;;;;;;139.65;115.25;;;19.00;47.50;;;;;;4757401;55;21540;-35
2022/02/01 16:22:04;;;;;;;142.50;117.35;;;19.00;47.50;;;;;;4757158;55;21037;-37
2022/02/01 16:27:06;;;;;;;150.38;121.65;;;19.00;47.40;;;;;;4737621;59;21133;-36
2022/02/01 16:32:11;;;;;;;146.00;118.45;;;19.00;47.40;;;;;;4755546;55;22347;-37
2022/02/01 16:37:12;;;;;;;140.57;115.82;;;19.00;47.40;;;;;;4741243;55;21578;-35
2022/02/01 16:42:14;;;;;;;146.18;119.80;;;18.90;47.30;;;;;;4754423;55;21511;-37
2022/02/01 16:47:16;;;;;;;142.65;118.87;;;19.00;47.30;;;;;;4748254;55;21504;-35
2022/02/01 16:52:23;;;;;;;148.20;121.55;;;18.90;47.20;;;;;;4747891;55;21492;-36
2022/02/01 16:57:33;;;;;;;148.80;124.65;;;18.90;47.20;;;;;;4737860;59;21500;-35
2022/02/01 17:02:34;;;;;;;146.90;121.10;;;19.00;47.20;;;;;;4747969;55;21499;-47
2022/02/01 17:07:35;;;;;;;143.48;119.70;;;18.90;47.20;;;;;;4745619;55;20998;-34
2022/02/01 17:12:44;;;;;;;144.13;119.25;;;18.90;47.20;;;;;;4760008;55;21034;-38
2022/02/01 17:17:59;;;;;;;145.82;122.45;;;18.90;47.10;;;;;;4738091;59;21563;-34
2022/02/01 17:23:00;;;;;;;145.12;122.53;;;18.90;47.10;;;;;;4746934;55;21504;-44
2022/02/01 17:28:01;;;;;;;151.43;126.55;;;18.90;47.10;;;;;;4789277;55;21053;-45
2022/02/01 17:33:02;;;;;;;139.40;116.35;;;18.90;47.00;;;;;;4737062;59;21599;-38
2022/02/01 17:38:05;;;;;;;149.55;123.85;;;18.90;47.10;;;;;;4764211;55;21068;-31
2022/02/01 17:43:05;;;;;;;148.77;123.87;;;18.90;47.00;;;;;;4738717;55;21230;-33
2022/02/01 17:48:06;;;;;;;147.73;123.93;;;18.90;47.00;;;;;;4737745;56;21106;-37
2022/02/01 17:54:04;;;;;;;152.65;127.18;;;18.90;47.00;;;;;;4737937;59;21037;-35
2022/02/01 17:59:05;;;;;;;152.07;125.03;;;18.90;47.00;;;;;;4749515;55;21536;-34
2022/02/01 18:04:06;;;;;;;154.60;128.40;;;18.90;46.90;;;;;;4748257;55;21029;-35
2022/02/01 18:09:10;;;;;;;148.87;126.10;;;18.90;46.90;;;;;;4737821;59;21561;-37
2022/02/01 18:14:21;;;;;;;157.62;129.82;;;18.90;46.90;;;;;;4742268;55;21504;-37
2022/02/01 18:19:22;;;;;;;150.70;124.30;;;18.90;46.90;;;;;;4741547;55;22298;-38
2022/02/01 18:24:23;;;;;;;146.27;124.78;;;18.90;46.90;;;;;;4781423;55;22247;-34
2022/02/01 18:29:24;;;;;;;151.40;126.50;;;18.90;46.90;;;;;;4739903;55;21057;-36
2022/02/01 18:34:25;;;;;;;143.93;124.72;;;18.90;46.90;;;;;;4738326;59;21845;-35
2022/02/01 18:41:25;;;;;;;155.98;131.48;;;18.90;46.90;;;;;;4795472;55;21026;-35
2022/02/01 18:46:29;;;;;;;152.48;128.35;;;18.90;46.90;;;;;;4768360;55;21469;-35
2022/02/01 18:51:53;;;;;;;155.25;127.53;;;18.90;46.90;;;;;;4783669;55;21045;-37
2022/02/01 18:57:03;;;;;;;153.15;127.18;;;18.90;46.90;;;;;;4753171;55;21603;-34
2022/02/01 19:07:56;;;;;;;159.75;129.45;;;18.90;46.80;;;;;;4738150;59;21089;-38
2022/02/01 19:13:00;;;;;;;155.05;129.57;;;18.90;46.80;;;;;;4765130;55;21710;-35
2022/02/01 19:18:01;;;;;;;155.25;128.27;;;18.90;46.80;;;;;;4738001;59;21042;-37
2022/02/01 19:23:02;;;;;;;162.82;133.10;;;18.90;46.90;;;;;;4785403;55;21524;-37
2022/02/01 19:28:04;;;;;;;150.40;125.68;;;18.80;46.80;;;;;;4754768;55;21496;-37
2022/02/01 19:33:09;;;;;;;161.57;134.37;;;18.80;46.70;;;;;;4751804;55;21496;-38
2022/02/01 19:38:18;;;;;;;156.55;129.73;;;18.90;46.70;;;;;;4790708;55;21483;-41
2022/02/01 19:43:23;;;;;;;160.90;132.07;;;18.80;46.70;;;;;;4772557;55;21108;-31
2022/02/01 19:48:24;;;;;;;154.70;130.48;;;18.80;46.70;;;;;;4752626;55;21511;-38
2022/02/01 19:53:28;;;;;;;155.25;128.20;;;18.80;46.60;;;;;;4753663;55;21078;-39
2022/02/01 19:58:35;;;;;;;155.75;130.27;;;18.80;46.60;;;;;;4791855;55;21051;-36
2022/02/01 20:03:45;;;;;;;154.30;126.62;;;18.80;46.60;;;;;;4760495;55;21010;-37
2022/02/01 20:08:50;;;;;;;155.95;128.87;;;18.90;46.70;;;;;;4790883;55;21074;-33
2022/02/01 20:13:51;;;;;;;162.27;131.57;;;18.80;46.60;;;;;;4737682;55;21085;-38
2022/02/01 20:18:53;;;;;;;160.12;133.65;;;18.80;46.50;;;;;;4738057;59;21484;-34
2022/02/01 20:23:54;;;;;;;162.68;132.60;;;18.80;46.50;;;;;;4762958;55;21073;-38
2022/02/01 20:28:57;;;;;;;162.18;134.63;;;18.80;46.50;;;;;;4738132;55;21053;-38
2022/02/01 20:34:02;;;;;;;160.00;133.45;;;18.80;46.50;;;;;;4741050;55;21002;-37
2022/02/01 20:39:11;;;;;;;167.07;138.12;;;18.90;46.50;;;;;;4812506;55;21568;-36
2022/02/01 20:44:14;;;;;;;166.75;137.68;;;18.80;46.50;;;;;;4748415;55;21496;-35
2022/02/01 20:49:16;;;;;;;166.62;136.20;;;18.80;46.50;;;;;;4767391;55;21025;-35
2022/02/01 20:54:17;;;;;;;167.23;139.45;;;18.80;46.50;;;;;;4794049;55;21507;-37
2022/02/01 20:59:18;;;;;;;174.50;141.10;;;18.80;46.40;;;;;;4795252;55;21006;-36
2022/02/01 21:04:20;;;;;;;168.48;138.82;;;18.80;46.30;;;;;;4772481;55;21085;-35
2022/02/01 21:09:22;;;;;;;169.87;140.10;;;18.80;46.30;;;;;;4767269;55;21017;-36
2022/02/01 21:14:23;;;;;;;168.32;138.40;;;18.80;46.30;;;;;;4757805;55;21587;-35
2022/02/01 21:19:24;;;;;;;170.12;139.27;;;18.80;46.40;;;;;;4781756;55;21058;-35
2022/02/01 21:24:25;;;;;;;171.18;143.20;;;18.80;46.30;;;;;;4773509;55;21049;-35
2022/02/01 21:29:27;;;;;;;173.45;141.18;;;18.80;46.20;;;;;;4787629;55;21507;-38
2022/02/01 21:34:28;;;;;;;172.10;142.87;;;18.80;46.20;;;;;;4787147;55;20994;-39
2022/02/01 21:39:29;;;;;;;169.18;139.27;;;18.80;46.20;;;;;;4738101;59;21480;-37
2022/02/01 21:44:30;;;;;;;170.85;140.90;;;18.80;46.20;;;;;;4741460;55;21046;-38
2022/02/01 21:49:31;;;;;;;178.52;142.35;;;18.80;46.10;;;;;;4751265;55;21030;-35
2022/02/01 21:54:31;;;;;;;175.52;142.48;;;18.80;46.30;;;;;;4743005;55;21006;-35
2022/02/01 21:59:32;;;;;;;179.23;144.85;;;18.80;46.20;;;;;;4758073;55;21464;-38
2022/02/01 22:04:34;;;;;;;179.70;144.02;;;18.80;46.00;;;;;;4746518;55;21006;-36
2022/02/01 22:09:35;;;;;;;178.18;143.60;;;18.80;46.00;;;;;;4783597;55;21488;-37
2022/02/01 22:14:36;;;;;;;168.40;135.80;;;18.80;46.00;;;;;;4756094;55;21030;-37
2022/02/01 22:19:39;;;;;;;177.27;142.13;;;18.80;46.00;;;;;;4738143;59;21093;-36
2022/02/01 22:24:40;;;;;;;178.00;143.13;;;18.80;45.90;;;;;;4745964;55;21456;-36
2022/02/01 22:29:42;;;;;;;175.95;142.57;;;18.80;45.90;;;;;;4782898;55;21516;-37
2022/02/01 22:34:43;;;;;;;177.02;143.02;;;18.80;45.80;;;;;;4765437;55;21010;-37
2022/02/01 22:39:44;;;;;;;175.20;142.93;;;18.80;45.80;;;;;;4739606;55;21092;-35
2022/02/01 22:44:45;;;;;;;176.27;142.52;;;18.80;45.80;;;;;;4737695;59;21066;-37
2022/02/01 22:49:46;;;;;;;181.18;142.60;;;18.80;45.80;;;;;;4769449;55;22464;-36
2022/02/01 22:54:47;;;;;;;173.75;141.37;;;18.80;45.70;;;;;;4737871;59;21033;-36
2022/02/01 22:59:48;;;;;;;182.73;146.02;;;18.80;45.70;;;;;;4766174;55;21555;-35
2022/02/01 23:04:49;;;;;;;176.48;140.85;;;18.80;45.70;;;;;;4738055;59;21053;-36
2022/02/01 23:09:58;;;;;;;178.75;142.43;;;18.80;45.70;;;;;;4763183;55;21362;-36
2022/02/01 23:21:34;;;;;;;167.37;132.65;;;18.80;45.60;;;;;;4805867;55;22496;-37
2022/02/01 23:26:36;;;;;;;176.18;139.68;;;18.80;45.50;;;;;;4753712;55;21014;-38
2022/02/01 23:31:52;;;;;;;172.37;139.50;;;18.80;45.60;;;;;;4762784;55;21112;-37
2022/02/01 23:48:21;;;;;;;166.02;132.60;;;18.80;45.40;;;;;;4769190;55;21540;-37
2022/02/01 23:53:22;;;;;;;173.68;139.23;;;18.80;45.40;;;;;;4809859;55;21061;-36
2022/02/01 23:58:49;;;;;;;173.43;138.75;;;18.80;45.40;;;;;;4742096;55;21049;-37
